Airfield :
LOGIN :

Register | Disclaimer

   EN    FR    IT 

 










Legend :    VFR   Marginal VFR   IFR   Intensive IFR   Very Intensive IFR
Visi :
Ceiling :
>= 8 km
>= 3000ft
5 to 8 km
1000 to 3000 ft
1500m to 5 km
500 to 1000 ft
800 to 1500m
200 to 500 ft
< 800m
< 200 ft
Symbols :   Thunderstorms  Fog  Heavy snow  Heavy precipitations  Wind > 20 kt
SIGMETs :     Misc.  Thunderstorms  Icing  Turbulence  Mountain Waves  Volcanic Ashes






- Airport Elevation : 46 ft
- IATA code : SNN


EINN - Shannon

CURRENT METAR :
  • 162330Z 34005KT 9999 FEW034 BKN048 13/12 Q1007 NOSIG

EXPIRED METARs :
  • 162300Z 31004KT 280V340 9999 FEW015 BKN070 13/11 Q1007 NOSIG
  • 162230Z 27004KT 9999 FEW035 BKN080 13/11 Q1007 NOSIG
  • 162200Z 27005KT 9999 FEW035 BKN080 13/11 Q1006 NOSIG
  • 162130Z 26006KT 9999 FEW040 BKN080 13/10 Q1006 NOSIG
  • 162100Z 27005KT 9999 FEW024 SCT070 13/10 Q1006 NOSIG
  • 162030Z 30006KT 9999 FEW018 SCT060 14/10 Q1006 NOSIG
  • 162000Z 28008KT 9999 FEW020 SCT070 15/10 Q1005 NOSIG
  • 161930Z 28009KT 9999 FEW020 BKN070 15/10 Q1005 NOSIG
  • 161900Z 28009KT 9999 SCT024 BKN070 16/10 Q1005 NOSIG

TAF TAF EINN
Valid from the 17 at 00:00 until the 18 at 00:00 UTC


162300Z 1700/1724 29010KT 9999 FEW015 SCT040
BECMG 1700/1702 34008KT
PROB30
TEMPO 1700/1703 4000 -DZ BKN014



MET'MAP, your aeronautical weather chart ! - Copyright ORBIFLY December 2007 - Disclaimer

ORBIFLY MET'MAP TEAM :

Programming & Development : Alexandra Zaïnal
Original concept : Baudouin d'Aumeries
Technical & hardware support : Manuel Goepfert
Assistance : Marc-Olivier Méhu




SOURCES & CREDITS :

   NOAA